createdAt,value
2022-10-20T00:02:00.679Z,13.40
2022-10-20T00:04:47.581Z,13.40
2022-10-20T00:07:14.473Z,13.40
2022-10-20T00:09:41.335Z,13.50
2022-10-20T00:12:08.171Z,13.50
2022-10-20T00:14:36.214Z,13.60
2022-10-20T00:17:03.358Z,13.60
2022-10-20T00:19:30.236Z,13.60
2022-10-20T00:21:57.101Z,13.60
2022-10-20T00:24:25.256Z,13.60
2022-10-20T00:26:52.076Z,13.60
2022-10-20T00:31:50.734Z,13.60
2022-10-20T00:34:36.415Z,13.60
2022-10-20T00:37:03.259Z,13.60
2022-10-20T00:39:31.132Z,13.60
2022-10-20T00:41:57.949Z,13.60
2022-10-20T00:45:00.551Z,13.60
2022-10-20T00:50:23.401Z,13.70
2022-10-20T00:52:53.679Z,13.70
2022-10-20T00:55:32.414Z,13.70
2022-10-20T00:58:01.082Z,13.80
2022-10-20T01:00:28.372Z,13.80
2022-10-20T01:03:34.231Z,13.80
2022-10-20T01:06:01.090Z,13.80
2022-10-20T01:08:28.052Z,13.90
2022-10-20T01:11:01.262Z,13.90
2022-10-20T01:13:54.578Z,13.90
2022-10-20T01:16:45.594Z,13.90
2022-10-20T01:19:15.112Z,14.00
2022-10-20T01:21:51.188Z,14.00
2022-10-20T01:24:46.323Z,14.00
2022-10-20T01:27:31.443Z,14.00
2022-10-20T01:30:09.134Z,14.00
2022-10-20T01:33:02.893Z,14.00
2022-10-20T01:35:35.029Z,14.10
2022-10-20T01:38:31.478Z,14.10
2022-10-20T01:41:16.617Z,14.20
2022-10-20T01:43:47.256Z,14.20
2022-10-20T01:46:15.968Z,14.30
2022-10-20T01:48:43.773Z,14.30
2022-10-20T01:51:11.051Z,14.30
2022-10-20T01:53:38.187Z,14.40
2022-10-20T01:56:06.465Z,14.40
2022-10-20T01:58:39.006Z,14.50
2022-10-20T02:01:37.384Z,14.50
2022-10-20T02:04:08.061Z,14.60
2022-10-20T02:06:46.195Z,14.70
2022-10-20T02:09:41.882Z,14.80
2022-10-20T02:12:31.501Z,14.80
2022-10-20T02:15:00.860Z,14.90
2022-10-20T02:17:29.322Z,14.90
2022-10-20T02:19:57.388Z,14.90
2022-10-20T02:22:24.726Z,14.90
2022-10-20T02:25:13.508Z,15.00
2022-10-20T02:27:46.016Z,15.00
2022-10-20T02:30:16.114Z,15.00
2022-10-20T02:32:49.238Z,15.10
2022-10-20T02:35:21.980Z,15.10
2022-10-20T02:37:48.830Z,15.10
2022-10-20T02:40:16.015Z,15.10
2022-10-20T02:42:43.769Z,15.10
2022-10-20T02:45:11.097Z,15.10
2022-10-20T02:47:38.616Z,15.10
2022-10-20T02:50:07.313Z,15.20
2022-10-20T02:52:34.526Z,15.20
2022-10-20T02:55:01.549Z,15.20
2022-10-20T02:57:28.443Z,15.20
2022-10-20T02:59:55.283Z,15.20
2022-10-20T03:02:22.154Z,15.20
2022-10-20T03:05:27.147Z,15.20
2022-10-20T03:07:54.141Z,15.10
2022-10-20T03:10:21.744Z,15.10
2022-10-20T03:12:48.799Z,15.10
2022-10-20T03:15:15.834Z,15.20
2022-10-20T03:17:42.675Z,15.20
2022-10-20T03:20:09.964Z,15.20
2022-10-20T03:22:36.732Z,15.20
2022-10-20T03:25:05.288Z,15.20
2022-10-20T03:27:32.067Z,15.30
2022-10-20T03:29:58.917Z,15.30
2022-10-20T03:32:25.751Z,15.30
2022-10-20T03:34:52.808Z,15.30
2022-10-20T03:37:19.674Z,15.30
2022-10-20T03:39:46.468Z,15.30
2022-10-20T03:42:14.241Z,15.30
2022-10-20T03:44:45.107Z,15.40
2022-10-20T03:47:13.448Z,15.40
2022-10-20T03:49:40.831Z,15.40
2022-10-20T03:52:07.833Z,15.40
2022-10-20T03:54:36.375Z,15.40
2022-10-20T03:57:06.874Z,15.40
2022-10-20T03:59:35.033Z,15.40
2022-10-20T04:02:01.929Z,15.40
2022-10-20T04:04:29.108Z,15.40
2022-10-20T04:06:55.903Z,15.40
2022-10-20T04:09:22.721Z,15.40
2022-10-20T04:11:49.532Z,15.40
2022-10-20T04:14:18.664Z,15.40
2022-10-20T04:16:45.480Z,15.40
2022-10-20T04:19:12.251Z,15.40
2022-10-20T04:21:39.110Z,15.50
2022-10-20T04:24:08.246Z,15.50
2022-10-20T04:26:35.113Z,15.50
2022-10-20T04:29:02.689Z,15.50
2022-10-20T04:31:29.515Z,15.50
2022-10-20T04:33:56.473Z,15.50
2022-10-20T04:36:23.264Z,15.50
2022-10-20T04:38:50.085Z,15.50
2022-10-20T04:41:16.965Z,15.50
2022-10-20T04:43:50.591Z,15.50
2022-10-20T04:46:17.412Z,15.50
2022-10-20T04:48:44.563Z,15.60
2022-10-20T04:51:13.546Z,15.60
2022-10-20T04:53:42.641Z,15.60
2022-10-20T04:56:14.204Z,15.60
2022-10-20T04:58:41.062Z,15.60
2022-10-20T05:01:09.897Z,15.60
2022-10-20T05:03:55.763Z,15.60
2022-10-20T05:06:25.819Z,15.60
2022-10-20T05:08:55.044Z,15.60
2022-10-20T05:11:23.457Z,15.60
2022-10-20T05:13:50.702Z,15.60
2022-10-20T05:16:18.089Z,15.60
2022-10-20T05:18:45.871Z,15.60
2022-10-20T05:21:15.787Z,15.60
2022-10-20T05:23:43.720Z,15.60
2022-10-20T05:26:13.440Z,15.60
2022-10-20T05:28:44.329Z,15.60
2022-10-20T05:31:11.969Z,15.60
2022-10-20T05:33:43.575Z,15.60
2022-10-20T05:36:12.271Z,15.60
2022-10-20T05:38:40.861Z,15.60
2022-10-20T05:41:12.104Z,15.60
2022-10-20T05:43:41.587Z,15.60
2022-10-20T05:46:09.230Z,15.50
2022-10-20T05:48:40.681Z,15.60
2022-10-20T05:51:15.755Z,15.60
2022-10-20T05:54:04.200Z,15.50
2022-10-20T05:56:31.937Z,15.50
2022-10-20T05:58:59.199Z,15.50
2022-10-20T06:01:49.816Z,15.50
2022-10-20T06:04:23.709Z,15.50
2022-10-20T06:06:51.966Z,15.50
2022-10-20T06:09:20.406Z,15.50
2022-10-20T06:11:47.889Z,15.50
2022-10-20T06:14:35.724Z,15.50
2022-10-20T06:17:02.569Z,15.50
2022-10-20T06:19:29.458Z,15.50
2022-10-20T06:21:56.324Z,15.50
2022-10-20T06:24:24.364Z,15.50
2022-10-20T06:26:51.608Z,15.50
2022-10-20T06:29:19.368Z,15.60
2022-10-20T06:31:48.904Z,15.50
2022-10-20T06:34:18.713Z,15.50
2022-10-20T06:36:46.656Z,15.60
2022-10-20T06:39:19.548Z,15.60
2022-10-20T06:41:51.562Z,15.60
2022-10-20T06:45:17.809Z,15.60
2022-10-20T06:47:44.826Z,15.60
2022-10-20T06:50:11.662Z,15.60
2022-10-20T06:52:38.825Z,15.60
2022-10-20T06:55:06.400Z,15.60
2022-10-20T06:57:33.272Z,15.60
2022-10-20T07:00:00.161Z,15.60
2022-10-20T07:02:26.974Z,15.60
2022-10-20T07:04:53.985Z,15.60
2022-10-20T07:07:20.945Z,15.60
2022-10-20T07:09:47.811Z,15.70
2022-10-20T07:12:14.718Z,15.60
2022-10-20T07:14:43.819Z,15.60
2022-10-20T07:17:10.611Z,15.70
2022-10-20T07:19:37.765Z,15.70
2022-10-20T07:22:04.594Z,15.70
2022-10-20T07:24:32.536Z,15.70
2022-10-20T07:26:59.599Z,15.70
2022-10-20T07:29:26.639Z,15.70
2022-10-20T07:31:53.548Z,15.70
2022-10-20T07:34:26.246Z,15.70
2022-10-20T07:36:54.418Z,15.70
2022-10-20T07:39:21.674Z,15.70
2022-10-20T07:41:48.778Z,15.80
2022-10-20T07:44:18.038Z,15.80
2022-10-20T07:46:45.721Z,15.80
2022-10-20T07:52:00.133Z,15.90
2022-10-20T07:54:29.106Z,15.80
2022-10-20T07:56:55.953Z,15.90
2022-10-20T07:59:22.801Z,15.90
2022-10-20T08:01:49.882Z,15.80
2022-10-20T08:04:18.001Z,15.90
2022-10-20T08:06:47.139Z,15.90
2022-10-20T08:09:13.911Z,15.80
2022-10-20T08:11:40.738Z,15.90
2022-10-20T08:14:45.491Z,15.90
2022-10-20T08:17:12.564Z,15.90
2022-10-20T08:22:20.202Z,15.90
2022-10-20T08:24:47.413Z,15.90
2022-10-20T08:27:14.275Z,16.00
2022-10-20T08:29:41.231Z,16.00
2022-10-20T08:32:08.330Z,16.00
2022-10-20T08:34:35.251Z,16.10
2022-10-20T08:37:02.162Z,16.10
2022-10-20T08:39:28.996Z,16.10
2022-10-20T08:42:12.885Z,16.20
2022-10-20T08:45:00.102Z,16.20
2022-10-20T08:47:33.445Z,16.40
2022-10-20T08:50:02.431Z,16.50
2022-10-20T08:52:29.298Z,16.60
2022-10-20T08:55:18.981Z,16.60
2022-10-20T08:57:48.287Z,16.50
2022-10-20T09:00:18.724Z,16.50
2022-10-20T09:03:10.771Z,16.50
2022-10-20T09:05:42.837Z,16.50
2022-10-20T09:08:09.762Z,16.50
2022-10-20T09:10:48.938Z,16.50
2022-10-20T09:13:53.459Z,16.50
2022-10-20T09:16:41.941Z,16.50
2022-10-20T09:19:21.458Z,16.50
2022-10-20T09:21:53.216Z,16.50
2022-10-20T09:24:22.456Z,16.50
2022-10-20T09:26:59.939Z,16.50
2022-10-20T09:29:38.843Z,16.50
2022-10-20T09:32:48.487Z,16.50
2022-10-20T09:35:18.803Z,16.50
2022-10-20T09:37:53.423Z,16.50
2022-10-20T09:40:20.781Z,16.50
2022-10-20T09:42:59.069Z,16.50
2022-10-20T09:45:31.469Z,16.60
2022-10-20T09:48:21.111Z,16.60
2022-10-20T09:50:51.902Z,16.70
2022-10-20T09:53:21.838Z,16.80
2022-10-20T09:55:50.340Z,16.80
2022-10-20T09:58:38.244Z,16.80
2022-10-20T10:01:16.694Z,16.90
2022-10-20T10:03:59.708Z,16.80
2022-10-20T10:06:38.636Z,16.80
2022-10-20T10:09:36.080Z,16.80
2022-10-20T10:12:19.059Z,16.70
2022-10-20T10:15:25.022Z,16.70
2022-10-20T10:17:52.314Z,16.60
2022-10-20T10:20:19.053Z,16.50
2022-10-20T10:22:45.918Z,16.40
2022-10-20T10:25:25.537Z,16.30
2022-10-20T10:28:00.388Z,16.30
2022-10-20T10:30:31.710Z,16.30
2022-10-20T10:32:58.926Z,16.30
2022-10-20T10:35:42.444Z,16.30
2022-10-20T10:38:14.201Z,16.30
2022-10-20T10:40:53.023Z,16.30
2022-10-20T10:43:50.474Z,16.30
2022-10-20T10:46:20.675Z,16.50
2022-10-20T10:48:57.329Z,16.90
2022-10-20T10:51:42.550Z,17.30
2022-10-20T10:54:30.366Z,17.70
2022-10-20T10:57:01.685Z,18.00
2022-10-20T10:59:33.332Z,18.20
2022-10-20T11:02:20.987Z,18.20
2022-10-20T11:05:32.697Z,18.20
2022-10-20T11:08:07.630Z,18.30
2022-10-20T11:10:34.412Z,18.40
2022-10-20T11:13:16.531Z,18.50
2022-10-20T11:15:55.627Z,18.80
2022-10-20T11:18:44.126Z,19.00
2022-10-20T11:21:31.546Z,18.90
2022-10-20T11:24:17.892Z,18.80
2022-10-20T11:26:52.101Z,18.70
2022-10-20T11:29:31.490Z,18.60
2022-10-20T11:32:14.675Z,18.70
2022-10-20T11:34:50.257Z,18.80
2022-10-20T11:37:23.538Z,18.90
2022-10-20T11:39:57.680Z,19.00
2022-10-20T11:43:00.713Z,18.90
2022-10-20T11:45:45.413Z,18.80
2022-10-20T11:48:18.649Z,18.70
2022-10-20T11:51:13.357Z,18.60
2022-10-20T11:53:55.655Z,18.50
2022-10-20T11:56:50.614Z,18.40
2022-10-20T11:59:29.598Z,18.30
2022-10-20T12:02:35.380Z,18.20
2022-10-20T12:05:20.208Z,18.10
2022-10-20T12:08:28.241Z,18.00
2022-10-20T12:11:19.872Z,17.90
2022-10-20T12:14:14.778Z,17.80
2022-10-20T12:16:59.574Z,17.60
2022-10-20T12:19:30.492Z,17.40
2022-10-20T12:21:57.508Z,17.30
2022-10-20T12:24:52.092Z,17.20
2022-10-20T12:27:20.819Z,17.10
2022-10-20T12:29:51.233Z,17.00
2022-10-20T12:32:38.447Z,17.00
2022-10-20T12:35:11.722Z,16.90
2022-10-20T12:37:42.232Z,16.80
2022-10-20T12:40:11.686Z,16.90
2022-10-20T12:42:46.187Z,16.90
2022-10-20T12:45:16.270Z,16.90
2022-10-20T12:47:49.877Z,16.90
2022-10-20T12:50:36.874Z,17.00
2022-10-20T12:53:19.124Z,17.20
2022-10-20T12:56:10.323Z,17.40
2022-10-20T12:58:58.186Z,17.60
2022-10-20T13:01:25.411Z,17.70
2022-10-20T13:03:53.265Z,17.80
2022-10-20T13:06:23.179Z,17.80
2022-10-20T13:09:21.189Z,17.80
2022-10-20T13:11:57.667Z,17.90
2022-10-20T13:14:40.889Z,17.90
2022-10-20T13:17:16.079Z,17.90
2022-10-20T13:19:48.915Z,17.90
2022-10-20T13:22:39.273Z,17.80
2022-10-20T13:25:18.424Z,17.70
2022-10-20T13:27:47.770Z,17.80
2022-10-20T13:30:22.026Z,17.80
2022-10-20T13:33:11.618Z,17.90
2022-10-20T13:36:05.207Z,17.90
2022-10-20T13:38:38.020Z,17.90
2022-10-20T13:41:25.768Z,17.90
2022-10-20T13:44:31.358Z,18.00
2022-10-20T13:47:06.234Z,18.00
2022-10-20T13:49:59.910Z,18.00
2022-10-20T13:52:31.149Z,17.90
2022-10-20T13:54:59.848Z,17.80
2022-10-20T13:57:29.766Z,17.60
2022-10-20T13:59:57.788Z,17.40
2022-10-20T14:02:30.852Z,17.30
2022-10-20T14:05:12.900Z,17.20
2022-10-20T14:07:44.720Z,17.20
2022-10-20T14:10:32.050Z,17.30
2022-10-20T14:13:00.959Z,17.40
2022-10-20T14:15:35.924Z,17.70
2022-10-20T14:18:06.832Z,17.70
2022-10-20T14:20:39.210Z,17.50
2022-10-20T14:23:06.964Z,17.50
2022-10-20T14:25:33.993Z,18.30
2022-10-20T14:28:05.109Z,19.00
2022-10-20T14:30:38.744Z,19.70
2022-10-20T14:33:14.267Z,20.10
2022-10-20T14:35:43.840Z,20.20
2022-10-20T14:38:31.760Z,19.70
2022-10-20T14:40:59.579Z,19.00
2022-10-20T14:44:08.918Z,18.50
2022-10-20T14:46:45.707Z,18.20
2022-10-20T14:49:36.091Z,18.00
2022-10-20T14:52:25.712Z,17.90
2022-10-20T14:54:52.812Z,18.30
2022-10-20T14:57:19.594Z,18.50
2022-10-20T15:00:04.354Z,18.40
2022-10-20T15:02:38.372Z,18.10
2022-10-20T15:05:26.256Z,17.90
2022-10-20T15:07:56.121Z,17.90
2022-10-20T15:10:25.759Z,17.90
2022-10-20T15:13:30.850Z,17.80
2022-10-20T15:15:59.452Z,17.80
2022-10-20T15:18:27.539Z,17.70
2022-10-20T15:20:56.350Z,17.80
2022-10-20T15:23:28.581Z,17.90
2022-10-20T15:26:05.651Z,17.80
2022-10-20T15:28:48.631Z,17.80
2022-10-20T15:31:23.027Z,17.70
2022-10-20T15:33:52.365Z,17.60
2022-10-20T15:36:28.947Z,18.10
2022-10-20T15:38:56.682Z,18.50
2022-10-20T15:41:30.065Z,18.50
2022-10-20T15:44:03.981Z,18.20
2022-10-20T15:46:30.974Z,17.90
2022-10-20T15:48:57.856Z,17.70
2022-10-20T15:51:29.017Z,17.50
2022-10-20T15:53:58.887Z,17.30
2022-10-20T15:56:25.905Z,17.10
2022-10-20T15:58:52.909Z,16.90
2022-10-20T16:01:21.892Z,16.80
2022-10-20T16:04:20.187Z,16.60
2022-10-20T16:06:47.252Z,16.50
2022-10-20T16:09:16.090Z,16.40
2022-10-20T16:11:44.215Z,16.40
2022-10-20T16:14:33.947Z,16.40
2022-10-20T16:17:00.825Z,16.40
2022-10-20T16:19:27.844Z,16.40
2022-10-20T16:21:54.717Z,16.40
2022-10-20T16:24:23.109Z,16.40
2022-10-20T16:26:49.995Z,16.40
2022-10-20T16:29:16.899Z,16.40
2022-10-20T16:31:43.751Z,16.40
2022-10-20T16:34:11.726Z,16.30
2022-10-20T16:36:38.980Z,16.30
2022-10-20T16:39:05.857Z,16.10
2022-10-20T16:41:33.108Z,16.00
2022-10-20T16:44:01.199Z,15.80
2022-10-20T16:46:28.308Z,15.60
2022-10-20T16:48:57.090Z,15.50
2022-10-20T16:51:23.983Z,15.40
2022-10-20T16:54:09.596Z,15.30
2022-10-20T16:56:36.429Z,15.20
2022-10-20T16:59:03.237Z,15.10
2022-10-20T17:01:30.221Z,15.10
2022-10-20T17:03:57.358Z,15.00
2022-10-20T17:06:25.747Z,15.00
2022-10-20T17:08:53.860Z,15.00
2022-10-20T17:11:23.625Z,15.10
2022-10-20T17:13:51.710Z,15.10
2022-10-20T17:16:24.819Z,15.10
2022-10-20T17:18:55.732Z,15.10
2022-10-20T17:21:22.620Z,15.10
2022-10-20T17:24:13.848Z,15.10
2022-10-20T17:26:41.490Z,15.00
2022-10-20T17:29:09.524Z,14.90
2022-10-20T17:31:37.902Z,14.80
2022-10-20T17:34:05.000Z,14.60
2022-10-20T17:36:32.400Z,14.50
2022-10-20T17:39:02.266Z,14.30
2022-10-20T17:41:29.549Z,14.20
2022-10-20T17:44:00.808Z,14.10
2022-10-20T17:46:28.404Z,14.00
2022-10-20T17:48:55.394Z,13.80
2022-10-20T17:51:26.870Z,13.70
2022-10-20T17:53:58.496Z,13.60
2022-10-20T17:56:28.498Z,13.50
2022-10-20T17:58:56.262Z,13.50
2022-10-20T18:01:27.093Z,13.30
2022-10-20T18:04:12.535Z,13.30
2022-10-20T18:06:40.265Z,13.20
2022-10-20T18:09:13.331Z,13.10
2022-10-20T18:11:44.288Z,13.10
2022-10-20T18:14:12.472Z,13.00
2022-10-20T18:16:40.685Z,13.00
2022-10-20T18:19:08.173Z,13.00
2022-10-20T18:21:35.015Z,12.90
2022-10-20T18:24:06.507Z,12.90
2022-10-20T18:26:35.297Z,12.80
2022-10-20T18:29:03.795Z,12.80
2022-10-20T18:31:32.299Z,12.70
2022-10-20T18:34:04.391Z,12.60
2022-10-20T18:36:36.236Z,12.60
2022-10-20T18:39:06.567Z,12.60
2022-10-20T18:41:39.216Z,12.60
2022-10-20T18:46:59.776Z,12.70
2022-10-20T18:49:26.953Z,12.70
2022-10-20T18:51:54.053Z,12.70
2022-10-20T18:54:23.216Z,12.60
2022-10-20T18:56:50.116Z,12.60
2022-10-20T18:59:17.881Z,12.60
2022-10-20T19:01:45.381Z,12.60
2022-10-20T19:04:13.501Z,12.50
2022-10-20T19:06:46.402Z,12.50
2022-10-20T19:09:19.299Z,12.50
2022-10-20T19:11:47.221Z,12.50
2022-10-20T19:14:15.093Z,12.50
2022-10-20T19:16:45.715Z,12.50
2022-10-20T19:21:53.883Z,12.40
2022-10-20T19:24:24.044Z,12.40
2022-10-20T19:27:02.007Z,12.40
2022-10-20T19:29:40.421Z,12.30
2022-10-20T19:32:07.353Z,12.20
2022-10-20T19:34:36.974Z,12.20
2022-10-20T19:37:04.415Z,12.20
2022-10-20T19:39:35.112Z,12.10
2022-10-20T19:42:03.804Z,12.10
2022-10-20T19:44:30.918Z,12.10
2022-10-20T19:46:58.295Z,12.00
2022-10-20T19:49:25.797Z,11.90
2022-10-20T19:51:53.957Z,11.80
2022-10-20T19:54:21.945Z,11.80
2022-10-20T19:56:48.893Z,11.70
2022-10-20T19:59:15.759Z,11.60
2022-10-20T20:01:42.748Z,11.50
2022-10-20T20:04:11.603Z,11.50
2022-10-20T20:06:38.621Z,11.40
2022-10-20T20:09:09.226Z,11.40
2022-10-20T20:11:37.700Z,11.30
2022-10-20T20:14:08.711Z,11.30
2022-10-20T20:16:35.784Z,11.20
2022-10-20T20:19:03.485Z,11.20
2022-10-20T20:21:30.776Z,11.20
2022-10-20T20:24:01.447Z,11.10
2022-10-20T20:26:36.946Z,11.00
2022-10-20T20:29:04.288Z,11.00
2022-10-20T20:31:31.193Z,11.00
2022-10-20T20:33:58.305Z,10.90
2022-10-20T20:36:27.124Z,10.90
2022-10-20T20:38:59.496Z,10.90
2022-10-20T20:41:30.339Z,10.90
2022-10-20T20:44:00.333Z,10.90
2022-10-20T20:46:31.033Z,10.90
2022-10-20T20:48:58.147Z,10.90
2022-10-20T20:51:28.970Z,10.90
2022-10-20T20:53:56.216Z,10.90
2022-10-20T20:56:23.362Z,10.70
2022-10-20T20:58:55.423Z,10.70
2022-10-20T21:01:24.799Z,10.60
2022-10-20T21:03:58.467Z,10.60
2022-10-20T21:06:33.123Z,10.50
2022-10-20T21:09:01.663Z,10.40
2022-10-20T21:11:28.876Z,10.40
2022-10-20T21:13:59.343Z,10.40
2022-10-20T21:16:35.283Z,10.30
2022-10-20T21:19:04.543Z,10.30
2022-10-20T21:21:37.291Z,10.30
2022-10-20T21:24:24.300Z,10.30
2022-10-20T21:26:51.220Z,10.20
2022-10-20T21:29:18.347Z,10.20
2022-10-20T21:31:45.223Z,10.20
2022-10-20T21:34:13.549Z,10.20
2022-10-20T21:36:40.507Z,10.20
2022-10-20T21:39:11.480Z,10.20
2022-10-20T21:41:38.693Z,10.20
2022-10-20T21:44:07.446Z,10.20
2022-10-20T21:46:35.907Z,10.10
2022-10-20T21:49:13.596Z,10.10
2022-10-20T21:51:43.424Z,10.10
2022-10-20T21:54:18.480Z,10.00
2022-10-20T21:56:47.050Z,9.90
2022-10-20T21:59:18.870Z,9.80
2022-10-20T22:01:47.286Z,9.80
2022-10-20T22:04:16.250Z,9.70
2022-10-20T22:06:43.447Z,9.70
2022-10-20T22:09:12.028Z,9.70
2022-10-20T22:11:44.027Z,9.70
2022-10-20T22:14:13.131Z,9.60
2022-10-20T22:16:41.726Z,9.60
2022-10-20T22:19:14.219Z,9.50
2022-10-20T22:21:43.062Z,9.50
2022-10-20T22:24:10.661Z,9.50
2022-10-20T22:26:37.816Z,9.50
2022-10-20T22:29:08.845Z,9.50
2022-10-20T22:31:37.588Z,9.40
2022-10-20T22:34:05.125Z,9.40
2022-10-20T22:36:31.955Z,9.40
2022-10-20T22:38:58.876Z,9.40
2022-10-20T22:41:25.883Z,9.40
2022-10-20T22:43:53.780Z,9.30
2022-10-20T22:46:20.985Z,9.30
2022-10-20T22:48:47.881Z,9.30
2022-10-20T22:51:15.575Z,9.20
2022-10-20T22:53:47.536Z,9.20
2022-10-20T22:56:20.079Z,9.20
2022-10-20T22:58:47.653Z,9.20
2022-10-20T23:01:17.753Z,9.20
2022-10-20T23:03:47.628Z,9.20
2022-10-20T23:06:20.819Z,9.30
2022-10-20T23:08:50.097Z,9.30
2022-10-20T23:11:17.416Z,9.40
2022-10-20T23:13:47.881Z,9.40
2022-10-20T23:16:14.947Z,9.40
2022-10-20T23:18:42.163Z,9.50
2022-10-20T23:21:09.104Z,9.50
2022-10-20T23:23:38.032Z,9.50
2022-10-20T23:26:06.695Z,9.50
2022-10-20T23:28:35.759Z,9.60
2022-10-20T23:31:30.249Z,9.60
2022-10-20T23:34:17.253Z,9.60
2022-10-20T23:36:44.101Z,9.60
2022-10-20T23:39:10.961Z,9.60
2022-10-20T23:41:37.821Z,9.70
2022-10-20T23:44:04.964Z,9.70
2022-10-20T23:46:32.644Z,9.80
2022-10-20T23:48:59.836Z,9.90
2022-10-20T23:51:26.988Z,9.90
2022-10-20T23:53:55.920Z,10.00
2022-10-20T23:56:22.817Z,10.10
2022-10-20T23:58:49.699Z,10.10
